createdAt,value
2023-02-14T00:02:17.679Z,12.43
2023-02-14T00:04:46.011Z,16.20
2023-02-14T00:07:13.475Z,13.67
2023-02-14T00:09:41.816Z,13.13
2023-02-14T00:12:09.349Z,11.63
2023-02-14T00:14:55.075Z,11.87
2023-02-14T00:17:22.609Z,10.60
2023-02-14T00:19:50.172Z,8.83
2023-02-14T00:22:17.720Z,8.73
2023-02-14T00:24:45.251Z,8.33
2023-02-14T00:27:12.786Z,9.60
2023-02-14T00:29:41.117Z,9.10
2023-02-14T00:32:08.742Z,8.37
2023-02-14T00:34:36.196Z,9.07
2023-02-14T00:37:03.741Z,8.83
2023-02-14T00:39:32.182Z,8.43
2023-02-14T00:41:59.742Z,8.57
2023-02-14T00:44:27.320Z,12.55
2023-02-14T00:46:54.866Z,10.43
2023-02-14T00:49:22.392Z,9.03
2023-02-14T00:51:49.933Z,11.68
2023-02-14T00:54:17.479Z,10.37
2023-02-14T00:56:45.782Z,9.27
2023-02-14T00:59:13.364Z,8.27
2023-02-14T01:01:40.924Z,9.43
2023-02-14T01:04:08.454Z,10.37
2023-02-14T01:06:35.999Z,9.63
2023-02-14T01:09:04.304Z,9.27
2023-02-14T01:11:31.832Z,8.27
2023-02-14T01:14:00.546Z,12.10
2023-02-14T01:16:28.195Z,9.90
2023-02-14T01:18:55.631Z,9.70
2023-02-14T01:21:23.945Z,8.50
2023-02-14T01:23:51.477Z,8.57
2023-02-14T01:26:19.809Z,8.47
2023-02-14T01:28:47.424Z,8.97
2023-02-14T01:31:17.550Z,10.73
2023-02-14T01:33:45.004Z,10.33
2023-02-14T01:36:21.424Z,10.27
2023-02-14T01:38:48.937Z,9.13
2023-02-14T01:41:16.484Z,8.83
2023-02-14T01:43:53.874Z,9.07
2023-02-14T01:46:21.410Z,9.30
2023-02-14T01:48:49.722Z,9.07
2023-02-14T01:51:17.289Z,10.17
2023-02-14T01:53:44.813Z,9.53
2023-02-14T01:56:13.128Z,9.20
2023-02-14T01:58:40.703Z,10.33
2023-02-14T02:01:08.266Z,10.70
2023-02-14T02:03:35.776Z,9.33
2023-02-14T02:06:16.281Z,11.83
2023-02-14T02:09:01.579Z,12.97
2023-02-14T02:11:29.162Z,18.52
2023-02-14T02:13:57.455Z,16.30
2023-02-14T02:16:40.168Z,13.97
2023-02-14T02:19:10.278Z,14.40
2023-02-14T02:22:00.137Z,14.37
2023-02-14T02:24:42.357Z,14.80
2023-02-14T02:27:19.531Z,19.65
2023-02-14T02:30:12.231Z,13.63
2023-02-14T02:32:45.717Z,13.47
2023-02-14T02:35:37.512Z,13.77
2023-02-14T02:38:24.188Z,15.07
2023-02-14T02:41:16.122Z,15.73
2023-02-14T02:44:05.081Z,14.03
2023-02-14T02:46:50.595Z,22.00
2023-02-14T02:50:12.884Z,23.77
2023-02-14T02:53:04.192Z,18.00
2023-02-14T02:56:01.795Z,19.30
2023-02-14T02:58:38.130Z,16.97
2023-02-14T03:01:08.203Z,15.67
2023-02-14T03:03:53.830Z,14.43
2023-02-14T03:06:21.383Z,14.03
2023-02-14T03:08:48.938Z,14.83
2023-02-14T03:11:16.450Z,16.37
2023-02-14T03:14:09.132Z,15.73
2023-02-14T03:16:57.714Z,15.13
2023-02-14T03:19:27.841Z,14.97
2023-02-14T03:21:55.367Z,14.40
2023-02-14T03:24:38.005Z,17.35
2023-02-14T03:27:29.772Z,14.80
2023-02-14T03:30:10.044Z,15.73
2023-02-14T03:32:46.315Z,15.87
2023-02-14T03:35:20.264Z,19.42
2023-02-14T03:37:59.878Z,15.87
2023-02-14T03:40:39.180Z,19.93
2023-02-14T03:43:13.448Z,17.43
2023-02-14T03:45:49.675Z,17.00
2023-02-14T03:48:17.218Z,14.03
2023-02-14T03:50:45.533Z,16.30
2023-02-14T03:53:13.126Z,13.43
2023-02-14T03:56:10.860Z,12.57
2023-02-14T03:58:38.394Z,19.73
2023-02-14T04:01:11.382Z,14.77
2023-02-14T04:03:38.942Z,14.07
2023-02-14T04:06:06.462Z,13.97
2023-02-14T04:08:33.996Z,18.20
2023-02-14T04:11:01.835Z,13.80
2023-02-14T04:13:29.087Z,14.07
2023-02-14T04:15:56.613Z,13.80
2023-02-14T04:18:42.292Z,13.57
2023-02-14T04:21:10.614Z,13.43
2023-02-14T04:23:38.128Z,12.40
2023-02-14T04:26:06.452Z,12.77
2023-02-14T04:28:34.006Z,13.17
2023-02-14T04:31:02.181Z,15.77
2023-02-14T04:33:29.133Z,14.23
2023-02-14T04:35:56.668Z,11.33
2023-02-14T04:38:24.192Z,13.77
2023-02-14T04:40:51.737Z,12.27
2023-02-14T04:43:19.278Z,14.33
2023-02-14T04:45:46.807Z,12.03
2023-02-14T04:48:14.375Z,10.93
2023-02-14T04:50:41.934Z,11.70
2023-02-14T04:53:09.430Z,12.47
2023-02-14T04:55:37.014Z,12.40
2023-02-14T04:58:05.309Z,16.57
2023-02-14T05:00:32.946Z,14.50
2023-02-14T05:03:01.192Z,16.47
2023-02-14T05:05:28.726Z,16.17
2023-02-14T05:07:56.276Z,17.10
2023-02-14T05:10:23.885Z,16.13
2023-02-14T05:12:51.409Z,13.40
2023-02-14T05:15:18.955Z,13.20
2023-02-14T05:17:46.529Z,12.53
2023-02-14T05:20:14.088Z,12.70
2023-02-14T05:22:41.627Z,12.90
2023-02-14T05:25:09.225Z,12.80
2023-02-14T05:27:36.754Z,13.10
2023-02-14T05:30:04.334Z,12.10
2023-02-14T05:32:32.622Z,12.23
2023-02-14T05:35:01.227Z,12.77
2023-02-14T05:37:27.702Z,11.17
2023-02-14T05:39:55.285Z,11.03
2023-02-14T05:42:22.862Z,11.33
2023-02-14T05:44:50.347Z,11.30
2023-02-14T05:47:18.695Z,12.50
2023-02-14T05:49:46.221Z,12.27
2023-02-14T05:52:13.828Z,12.20
2023-02-14T05:54:42.104Z,16.43
2023-02-14T05:57:09.625Z,16.83
2023-02-14T05:59:37.161Z,14.00
2023-02-14T06:02:04.792Z,13.63
2023-02-14T06:04:32.352Z,12.67
2023-02-14T06:06:59.855Z,17.07
2023-02-14T06:09:27.431Z,13.53
2023-02-14T06:11:55.431Z,12.80
2023-02-14T06:14:22.495Z,16.90
2023-02-14T06:16:50.868Z,13.67
2023-02-14T06:19:18.358Z,17.37
2023-02-14T06:21:45.899Z,15.03
2023-02-14T06:24:14.610Z,13.13
2023-02-14T06:26:42.169Z,14.90
2023-02-14T06:29:09.689Z,12.53
2023-02-14T06:31:37.332Z,16.67
2023-02-14T06:34:05.569Z,14.53
2023-02-14T06:36:33.090Z,13.80
2023-02-14T06:39:01.464Z,13.97
2023-02-14T06:41:29.009Z,13.77
2023-02-14T06:43:56.540Z,13.20
2023-02-14T06:46:24.233Z,15.82
2023-02-14T06:48:51.679Z,15.27
2023-02-14T06:51:19.205Z,12.07
2023-02-14T06:53:46.799Z,16.75
2023-02-14T06:56:14.334Z,14.93
2023-02-14T06:58:41.927Z,14.50
2023-02-14T07:01:09.520Z,13.00
2023-02-14T07:03:37.784Z,13.53
2023-02-14T07:06:06.129Z,13.60
2023-02-14T07:08:33.713Z,13.10
2023-02-14T07:11:01.591Z,17.43
2023-02-14T07:13:28.775Z,15.07
2023-02-14T07:15:56.493Z,18.95
2023-02-14T07:18:23.898Z,16.57
2023-02-14T07:20:51.453Z,17.60
2023-02-14T07:23:19.064Z,16.10
2023-02-14T07:25:46.572Z,20.73
2023-02-14T07:28:14.105Z,17.93
2023-02-14T07:30:41.779Z,13.50
2023-02-14T07:33:09.293Z,14.00
2023-02-14T07:35:36.778Z,16.37
2023-02-14T07:38:04.372Z,13.10
2023-02-14T07:40:31.950Z,13.30
2023-02-14T07:42:59.493Z,15.17
2023-02-14T07:45:27.065Z,15.17
2023-02-14T07:47:54.589Z,13.50
2023-02-14T07:50:22.152Z,13.13
2023-02-14T07:52:49.762Z,12.30
2023-02-14T07:55:17.275Z,14.90
2023-02-14T07:57:44.803Z,17.07
2023-02-14T08:00:13.196Z,15.23
2023-02-14T08:02:40.732Z,13.07
2023-02-14T08:05:09.181Z,16.73
2023-02-14T08:07:36.660Z,16.80
2023-02-14T08:10:05.121Z,18.70
2023-02-14T08:12:50.729Z,14.40
2023-02-14T08:15:37.236Z,16.33
2023-02-14T08:18:05.593Z,15.00
2023-02-14T08:20:33.120Z,13.80
2023-02-14T08:23:00.647Z,12.57
2023-02-14T08:25:28.239Z,14.27
2023-02-14T08:27:55.814Z,14.63
2023-02-14T08:30:23.366Z,10.30
2023-02-14T08:32:51.709Z,13.47
2023-02-14T08:35:19.202Z,17.70
2023-02-14T08:37:46.728Z,10.70
2023-02-14T08:40:14.316Z,15.93
2023-02-14T08:42:41.859Z,13.53
2023-02-14T08:45:09.548Z,12.80
2023-02-14T08:47:37.131Z,14.50
2023-02-14T08:50:07.544Z,12.50
2023-02-14T08:52:35.100Z,14.57
2023-02-14T08:55:02.666Z,12.63
2023-02-14T08:57:30.246Z,11.90
2023-02-14T08:59:57.710Z,10.00
2023-02-14T09:02:26.107Z,22.47
2023-02-14T09:04:53.592Z,17.60
2023-02-14T09:07:21.154Z,21.85
2023-02-14T09:09:48.730Z,17.05
2023-02-14T09:12:16.262Z,12.47
2023-02-14T09:14:46.310Z,11.73
2023-02-14T09:17:13.860Z,16.08
2023-02-14T09:19:41.387Z,12.17
2023-02-14T09:22:08.935Z,12.73
2023-02-14T09:24:38.053Z,11.83
2023-02-14T09:27:05.585Z,12.20
2023-02-14T09:29:33.121Z,12.27
2023-02-14T09:32:01.599Z,12.47
2023-02-14T09:34:29.019Z,12.63
2023-02-14T09:36:56.549Z,12.80
2023-02-14T09:39:24.127Z,16.15
2023-02-14T09:42:19.468Z,13.87
2023-02-14T09:44:59.076Z,20.47
2023-02-14T09:47:41.988Z,14.80
2023-02-14T09:50:18.079Z,15.03
2023-02-14T09:52:45.614Z,11.53
2023-02-14T09:55:15.875Z,15.18
2023-02-14T09:57:44.217Z,16.27
2023-02-14T10:00:17.808Z,15.30
2023-02-14T10:03:03.626Z,15.00
2023-02-14T10:05:34.094Z,13.43
2023-02-14T10:08:22.614Z,15.63
2023-02-14T10:11:11.445Z,12.53
2023-02-14T10:13:51.177Z,12.13
2023-02-14T10:16:26.735Z,12.10
2023-02-14T10:19:04.918Z,12.00
2023-02-14T10:21:38.280Z,10.60
2023-02-14T10:24:18.221Z,10.83
2023-02-14T10:26:45.766Z,11.73
2023-02-14T10:29:15.713Z,11.53
2023-02-14T10:31:47.062Z,11.63
2023-02-14T10:34:33.094Z,10.60
2023-02-14T10:37:19.077Z,11.23
2023-02-14T10:40:10.955Z,11.93
2023-02-14T10:42:50.307Z,11.97
2023-02-14T10:45:39.900Z,11.90
2023-02-14T10:48:22.761Z,12.93
2023-02-14T10:50:53.263Z,13.30
2023-02-14T10:53:26.752Z,14.02
2023-02-14T10:56:06.485Z,14.13
2023-02-14T10:58:34.009Z,13.47
2023-02-14T11:01:04.599Z,13.73
2023-02-14T11:03:32.945Z,12.83
2023-02-14T11:06:00.468Z,11.97
2023-02-14T11:08:33.937Z,13.67
2023-02-14T11:11:22.998Z,12.10
2023-02-14T11:13:50.552Z,13.57
2023-02-14T11:16:33.498Z,13.33
2023-02-14T11:19:10.383Z,14.37
2023-02-14T11:21:37.923Z,13.53
2023-02-14T11:24:18.705Z,14.98
2023-02-14T11:26:46.318Z,11.97
2023-02-14T11:29:13.787Z,11.87
2023-02-14T11:31:41.511Z,13.13
2023-02-14T11:34:33.626Z,13.60
2023-02-14T11:37:01.207Z,13.07
2023-02-14T11:39:32.269Z,15.00
2023-02-14T11:41:59.789Z,13.80
2023-02-14T11:44:27.358Z,13.93
2023-02-14T11:46:54.894Z,14.07
2023-02-14T11:49:28.244Z,13.50
2023-02-14T11:51:56.590Z,15.25
2023-02-14T11:54:26.884Z,14.20
2023-02-14T11:56:57.121Z,14.20
2023-02-14T11:59:33.064Z,15.77
2023-02-14T12:02:03.120Z,13.67
2023-02-14T12:04:38.196Z,13.73
2023-02-14T12:07:10.182Z,13.00
2023-02-14T12:09:37.717Z,13.10
2023-02-14T12:12:05.238Z,13.50
2023-02-14T12:14:33.595Z,12.83
2023-02-14T12:17:01.146Z,13.47
2023-02-14T12:19:49.908Z,13.37
2023-02-14T12:22:17.432Z,13.57
2023-02-14T12:24:50.396Z,15.25
2023-02-14T12:27:23.622Z,14.53
2023-02-14T12:30:02.682Z,13.63
2023-02-14T12:32:30.244Z,14.10
2023-02-14T12:35:01.434Z,16.05
2023-02-14T12:37:31.762Z,14.53
2023-02-14T12:40:11.203Z,15.77
2023-02-14T12:42:44.742Z,13.60
2023-02-14T12:45:23.950Z,12.80
2023-02-14T12:48:06.561Z,13.67
2023-02-14T12:50:42.723Z,13.97
2023-02-14T12:53:34.272Z,13.63
2023-02-14T12:56:02.707Z,13.70
2023-02-14T12:58:35.900Z,12.47
2023-02-14T13:01:12.204Z,14.73
2023-02-14T13:03:57.874Z,14.30
2023-02-14T13:06:25.457Z,13.10
2023-02-14T13:09:24.543Z,13.03
2023-02-14T13:12:26.012Z,13.77
2023-02-14T13:15:15.465Z,15.82
2023-02-14T13:17:45.519Z,13.83
2023-02-14T13:20:22.940Z,14.17
2023-02-14T13:22:50.521Z,13.90
2023-02-14T13:25:29.709Z,13.40
2023-02-14T13:27:57.306Z,16.50
2023-02-14T13:30:27.793Z,15.00
2023-02-14T13:32:55.288Z,14.20
2023-02-14T13:35:22.899Z,14.70
2023-02-14T13:37:50.418Z,13.23
2023-02-14T13:40:17.956Z,15.63
2023-02-14T13:42:48.501Z,15.25
2023-02-14T13:45:36.702Z,14.77
2023-02-14T13:48:13.614Z,13.83
2023-02-14T13:50:53.111Z,13.93
2023-02-14T13:53:32.751Z,13.83
2023-02-14T13:56:00.621Z,14.00
2023-02-14T13:58:28.611Z,14.63
2023-02-14T14:00:56.270Z,14.47
2023-02-14T14:03:29.989Z,14.43
2023-02-14T14:06:09.369Z,14.83
2023-02-14T14:08:39.660Z,13.90
2023-02-14T14:11:22.298Z,16.45
2023-02-14T14:14:14.933Z,16.33
2023-02-14T14:16:42.511Z,14.67
2023-02-14T14:19:19.789Z,14.50
2023-02-14T14:21:49.815Z,15.00
2023-02-14T14:24:26.890Z,16.12
2023-02-14T14:27:00.137Z,14.93
2023-02-14T14:29:39.811Z,14.50
2023-02-14T14:32:12.789Z,16.00
2023-02-14T14:34:40.307Z,17.08
2023-02-14T14:37:07.840Z,15.60
2023-02-14T14:39:35.425Z,16.23
2023-02-14T14:42:06.978Z,16.60
2023-02-14T14:44:34.050Z,15.03
2023-02-14T14:47:01.622Z,16.87
2023-02-14T14:49:29.173Z,17.77
2023-02-14T14:51:56.717Z,17.70
2023-02-14T14:54:27.096Z,17.37
2023-02-14T14:56:54.623Z,17.17
2023-02-14T14:59:28.405Z,16.73
2023-02-14T15:01:55.984Z,17.23
2023-02-14T15:04:29.226Z,17.17
2023-02-14T15:06:56.716Z,19.95
2023-02-14T15:09:24.345Z,18.90
2023-02-14T15:12:09.660Z,20.00
2023-02-14T15:14:37.262Z,20.83
2023-02-14T15:17:04.840Z,19.53
2023-02-14T15:19:34.879Z,19.80
2023-02-14T15:22:02.437Z,18.83
2023-02-14T15:24:30.710Z,23.00
2023-02-14T15:26:58.255Z,19.60
2023-02-14T15:29:29.315Z,19.30
2023-02-14T15:31:56.911Z,20.33
2023-02-14T15:34:24.363Z,19.57
2023-02-14T15:36:51.945Z,18.57
2023-02-14T15:39:19.476Z,18.80
2023-02-14T15:41:47.020Z,19.30
2023-02-14T15:44:20.600Z,18.60
2023-02-14T15:46:48.167Z,19.57
2023-02-14T15:49:16.489Z,21.08
2023-02-14T15:51:44.100Z,19.70
2023-02-14T15:54:18.663Z,21.45
2023-02-14T15:56:46.201Z,19.67
2023-02-14T15:59:19.549Z,18.43
2023-02-14T16:01:59.075Z,17.93
2023-02-14T16:04:26.690Z,19.27
2023-02-14T16:07:05.983Z,19.17
2023-02-14T16:09:36.356Z,19.10
2023-02-14T16:12:12.977Z,22.87
2023-02-14T16:14:40.559Z,21.57
2023-02-14T16:17:08.156Z,20.60
2023-02-14T16:19:41.683Z,23.75
2023-02-14T16:22:09.223Z,20.80
2023-02-14T16:24:36.788Z,20.97
2023-02-14T16:27:04.322Z,19.03
2023-02-14T16:29:31.878Z,18.93
2023-02-14T16:32:15.655Z,18.90
2023-02-14T16:34:27.012Z,17.50
2023-02-14T16:36:54.530Z,17.97
2023-02-14T16:39:22.105Z,18.47
2023-02-14T16:41:49.660Z,17.60
2023-02-14T16:44:17.195Z,17.70
2023-02-14T16:46:48.678Z,18.80
2023-02-14T16:49:16.222Z,17.30
2023-02-14T16:51:43.758Z,17.07
2023-02-14T16:54:12.110Z,16.93
2023-02-14T16:56:42.556Z,18.03
2023-02-14T16:59:10.092Z,18.00
2023-02-14T17:01:37.731Z,18.03
2023-02-14T17:04:06.001Z,18.60
2023-02-14T17:06:33.554Z,19.00
2023-02-14T17:09:01.179Z,18.97
2023-02-14T17:11:28.683Z,17.60
2023-02-14T17:13:56.218Z,17.13
2023-02-14T17:16:23.803Z,16.67
2023-02-14T17:18:51.375Z,16.03
2023-02-14T17:21:18.883Z,16.50
2023-02-14T17:23:47.490Z,16.37
2023-02-14T17:26:15.025Z,16.33
2023-02-14T17:28:43.318Z,15.53
2023-02-14T17:31:11.018Z,16.90
2023-02-14T17:33:38.467Z,16.13
2023-02-14T17:36:05.965Z,16.60
2023-02-14T17:38:33.570Z,16.30
2023-02-14T17:41:01.375Z,15.50
2023-02-14T17:43:28.625Z,16.57
2023-02-14T17:45:56.212Z,15.23
2023-02-14T17:48:24.531Z,16.77
2023-02-14T17:50:52.046Z,16.57
2023-02-14T17:53:20.398Z,16.33
2023-02-14T17:55:47.923Z,16.87
2023-02-14T17:58:15.451Z,20.58
2023-02-14T18:00:43.792Z,18.53
2023-02-14T18:03:11.368Z,20.93
2023-02-14T18:05:38.873Z,18.20
2023-02-14T18:08:06.447Z,17.53
2023-02-14T18:10:34.002Z,18.00
2023-02-14T18:13:01.529Z,18.07
2023-02-14T18:15:29.454Z,20.13
2023-02-14T18:17:57.022Z,20.97
2023-02-14T18:20:24.534Z,20.07
2023-02-14T18:22:52.109Z,20.90
2023-02-14T18:25:19.654Z,21.27
2023-02-14T18:27:47.210Z,28.30
2023-02-14T18:30:14.882Z,24.97
2023-02-14T18:32:42.383Z,24.87
2023-02-14T18:35:09.940Z,22.47
2023-02-14T18:37:37.533Z,21.50
2023-02-14T18:40:05.860Z,20.73
2023-02-14T18:42:33.400Z,21.83
2023-02-14T18:45:00.972Z,28.98
2023-02-14T18:47:28.515Z,31.20
2023-02-14T18:49:56.054Z,24.80
2023-02-14T18:52:23.612Z,23.20
2023-02-14T18:54:51.166Z,19.13
2023-02-14T18:57:18.680Z,20.43
2023-02-14T18:59:46.254Z,20.33
2023-02-14T19:02:14.595Z,24.75
2023-02-14T19:04:42.098Z,22.17
2023-02-14T19:07:10.447Z,21.27
2023-02-14T19:09:37.994Z,21.40
2023-02-14T19:12:08.282Z,26.08
2023-02-14T19:14:35.851Z,23.87
2023-02-14T19:17:03.376Z,23.73
2023-02-14T19:19:31.690Z,25.30
2023-02-14T19:21:59.276Z,23.90
2023-02-14T19:24:26.823Z,27.00
2023-02-14T19:26:54.342Z,24.47
2023-02-14T19:29:21.943Z,22.70
2023-02-14T19:31:49.682Z,23.17
2023-02-14T19:34:28.293Z,21.70
2023-02-14T19:36:53.429Z,21.77
2023-02-14T19:39:20.969Z,21.63
2023-02-14T19:41:48.883Z,22.57
2023-02-14T19:44:16.086Z,20.87
2023-02-14T19:46:43.606Z,20.60
2023-02-14T19:49:13.705Z,22.27
2023-02-14T19:51:41.259Z,22.73
2023-02-14T19:54:08.803Z,26.73
2023-02-14T19:56:36.367Z,23.10
2023-02-14T19:59:03.913Z,21.60
2023-02-14T20:01:31.513Z,20.90
2023-02-14T20:04:00.149Z,21.03
2023-02-14T20:06:27.686Z,23.07
2023-02-14T20:08:56.010Z,21.40
2023-02-14T20:11:23.575Z,21.27
2023-02-14T20:13:51.108Z,20.87
2023-02-14T20:16:18.660Z,27.02
2023-02-14T20:18:46.216Z,22.73
2023-02-14T20:21:16.723Z,22.97
2023-02-14T20:23:45.036Z,22.40
2023-02-14T20:26:12.609Z,22.83
2023-02-14T20:28:40.164Z,21.33
2023-02-14T20:31:10.443Z,25.90
2023-02-14T20:33:37.960Z,24.37
2023-02-14T20:36:05.515Z,23.30
2023-02-14T20:38:33.039Z,21.43
2023-02-14T20:41:06.363Z,22.77
2023-02-14T20:43:33.910Z,22.00
2023-02-14T20:46:01.501Z,26.98
2023-02-14T20:48:29.028Z,24.13
2023-02-14T20:50:56.553Z,24.70
2023-02-14T20:53:24.119Z,23.47
2023-02-14T20:55:51.652Z,22.17
2023-02-14T20:58:23.085Z,23.87
2023-02-14T21:00:50.636Z,23.47
2023-02-14T21:03:18.573Z,23.87
2023-02-14T21:05:46.093Z,23.63
2023-02-14T21:08:13.686Z,22.33
2023-02-14T21:10:41.293Z,23.70
2023-02-14T21:13:08.828Z,23.80
2023-02-14T21:15:36.376Z,22.50
2023-02-14T21:18:03.946Z,28.87
2023-02-14T21:20:31.480Z,24.30
2023-02-14T21:22:59.019Z,27.73
2023-02-14T21:25:26.816Z,23.40
2023-02-14T21:27:54.145Z,21.93
2023-02-14T21:30:21.728Z,23.90
2023-02-14T21:32:49.255Z,26.47
2023-02-14T21:35:16.797Z,24.33
2023-02-14T21:37:45.088Z,23.20
2023-02-14T21:40:12.651Z,30.90
2023-02-14T21:42:40.186Z,24.30
2023-02-14T21:45:26.965Z,23.50
2023-02-14T21:48:12.909Z,21.97
2023-02-14T21:50:41.533Z,20.27
2023-02-14T21:53:09.067Z,21.87
2023-02-14T21:55:36.604Z,19.90
2023-02-14T21:58:04.174Z,20.30
2023-02-14T22:00:31.722Z,22.00
2023-02-14T22:03:00.112Z,21.10
2023-02-14T22:05:27.626Z,22.03
2023-02-14T22:07:55.159Z,22.67
2023-02-14T22:10:22.693Z,27.35
2023-02-14T22:12:50.270Z,25.13
2023-02-14T22:15:17.792Z,25.23
2023-02-14T22:17:45.318Z,21.73
2023-02-14T22:20:12.967Z,22.30
2023-02-14T22:22:40.485Z,28.20
2023-02-14T22:25:08.059Z,30.67
2023-02-14T22:27:38.151Z,24.97
2023-02-14T22:30:03.253Z,21.00
2023-02-14T22:32:30.692Z,18.33
2023-02-14T22:34:59.398Z,18.30
2023-02-14T22:37:26.943Z,20.67
2023-02-14T22:39:54.473Z,19.07
2023-02-14T22:42:22.037Z,20.00
2023-02-14T22:44:49.565Z,20.67
2023-02-14T22:47:17.105Z,25.67
2023-02-14T22:49:44.689Z,21.40
2023-02-14T22:52:12.217Z,22.43
2023-02-14T22:54:39.753Z,22.30
2023-02-14T22:57:08.117Z,25.03
2023-02-14T22:59:35.642Z,23.03
2023-02-14T23:02:03.241Z,22.37
2023-02-14T23:04:30.744Z,22.93
2023-02-14T23:06:58.272Z,22.77
2023-02-14T23:09:25.796Z,21.00
2023-02-14T23:11:53.383Z,19.60
2023-02-14T23:14:40.010Z,25.98
2023-02-14T23:17:26.513Z,19.47
2023-02-14T23:20:12.275Z,20.57
2023-02-14T23:22:40.634Z,19.93
2023-02-14T23:25:08.174Z,20.00
2023-02-14T23:27:38.395Z,20.93
2023-02-14T23:30:05.996Z,19.33
2023-02-14T23:32:33.511Z,18.23
2023-02-14T23:35:01.055Z,25.67
2023-02-14T23:37:28.919Z,21.07
2023-02-14T23:39:56.465Z,20.30
2023-02-14T23:42:23.991Z,20.33
2023-02-14T23:44:52.719Z,21.07
2023-02-14T23:47:20.249Z,20.17
2023-02-14T23:49:48.554Z,21.20
2023-02-14T23:52:16.153Z,27.87
2023-02-14T23:54:43.692Z,27.08
2023-02-14T23:57:11.229Z,27.50
2023-02-14T23:59:38.850Z,21.73
